createdAt,value
2019-03-22T00:00:31.953Z,88.50
2019-03-22T00:03:01.523Z,88.30
2019-03-22T00:05:30.858Z,88.30
2019-03-22T00:08:01.134Z,88.40
2019-03-22T00:10:30.751Z,88.60
2019-03-22T00:13:00.350Z,88.70
2019-03-22T00:15:29.973Z,88.70
2019-03-22T00:17:59.279Z,88.80
2019-03-22T00:20:28.588Z,89.00
2019-03-22T00:22:57.892Z,89.00
2019-03-22T00:25:27.482Z,89.10
2019-03-22T00:27:56.806Z,89.20
2019-03-22T00:30:26.108Z,88.90
2019-03-22T00:32:55.393Z,89.30
2019-03-22T00:35:24.692Z,89.40
2019-03-22T00:37:53.971Z,89.40
2019-03-22T00:40:23.267Z,89.10
2019-03-22T00:42:52.552Z,89.00
2019-03-22T00:45:21.848Z,88.90
2019-03-22T00:47:51.148Z,88.90
2019-03-22T00:50:20.428Z,88.90
2019-03-22T00:52:49.731Z,89.10
2019-03-22T00:55:19.005Z,88.90
2019-03-22T00:57:48.292Z,89.40
2019-03-22T01:00:18.288Z,89.50
2019-03-22T01:02:47.902Z,89.70
2019-03-22T01:05:17.205Z,89.80
2019-03-22T01:07:46.893Z,89.60
2019-03-22T01:10:16.736Z,89.70
2019-03-22T01:12:46.011Z,90.20
2019-03-22T01:15:15.857Z,90.50
2019-03-22T01:17:45.134Z,90.30
2019-03-22T01:20:14.975Z,90.40
2019-03-22T01:22:44.245Z,90.30
2019-03-22T01:25:13.782Z,90.20
2019-03-22T01:27:43.057Z,90.10
2019-03-22T01:30:17.560Z,89.70
2019-03-22T01:32:46.832Z,89.80
2019-03-22T01:35:16.395Z,90.00
2019-03-22T01:37:45.677Z,90.30
2019-03-22T01:40:16.130Z,90.80
2019-03-22T01:42:45.766Z,91.00
2019-03-22T01:45:16.490Z,91.00
2019-03-22T01:47:46.071Z,90.60
2019-03-22T01:50:19.213Z,90.10
2019-03-22T01:52:48.509Z,90.60
2019-03-22T01:55:17.810Z,90.50
2019-03-22T01:57:52.930Z,91.00
2019-03-22T02:00:18.516Z,90.50
2019-03-22T02:02:47.802Z,91.00
2019-03-22T02:05:17.779Z,91.00
2019-03-22T02:07:47.354Z,90.80
2019-03-22T02:10:16.707Z,90.90
2019-03-22T02:12:46.252Z,91.20
2019-03-22T02:15:16.160Z,91.50
2019-03-22T02:17:45.630Z,91.40
2019-03-22T02:20:16.521Z,91.70
2019-03-22T02:22:45.829Z,91.50
2019-03-22T02:25:15.361Z,91.20
2019-03-22T02:27:44.650Z,91.50
2019-03-22T02:30:26.285Z,91.40
2019-03-22T02:32:55.575Z,91.70
2019-03-22T02:35:28.959Z,91.40
2019-03-22T02:37:55.884Z,91.70
2019-03-22T02:40:26.251Z,91.70
2019-03-22T02:42:55.790Z,91.70
2019-03-22T02:45:25.104Z,91.90
2019-03-22T02:47:54.380Z,92.00
2019-03-22T02:50:23.699Z,92.10
2019-03-22T02:52:53.003Z,91.50
2019-03-22T02:55:22.312Z,91.40
2019-03-22T02:57:51.636Z,91.00
2019-03-22T03:00:20.932Z,91.10
2019-03-22T03:02:50.268Z,91.10
2019-03-22T03:05:19.628Z,91.00
2019-03-22T03:07:48.916Z,91.20
2019-03-22T03:10:18.618Z,90.90
2019-03-22T03:12:47.986Z,91.00
2019-03-22T03:15:18.058Z,91.00
2019-03-22T03:17:48.665Z,90.80
2019-03-22T03:20:19.401Z,91.10
2019-03-22T03:22:48.901Z,91.30
2019-03-22T03:25:18.574Z,91.40
2019-03-22T03:27:47.931Z,91.70
2019-03-22T03:30:21.867Z,91.30
2019-03-22T03:32:51.318Z,91.20
2019-03-22T03:35:20.806Z,91.20
2019-03-22T03:37:50.179Z,90.90
2019-03-22T03:40:19.646Z,91.10
2019-03-22T03:42:48.942Z,91.20
2019-03-22T03:45:29.962Z,91.00
2019-03-22T03:48:00.792Z,91.10
2019-03-22T03:50:30.088Z,91.10
2019-03-22T03:52:59.670Z,91.10
2019-03-22T03:55:29.497Z,91.20
2019-03-22T03:57:58.836Z,91.00
2019-03-22T04:00:28.232Z,91.00
2019-03-22T04:02:57.723Z,91.00
2019-03-22T04:05:27.015Z,90.90
2019-03-22T04:07:56.319Z,90.80
2019-03-22T04:10:25.626Z,90.90
2019-03-22T04:12:54.915Z,91.00
2019-03-22T04:15:24.303Z,90.90
2019-03-22T04:17:53.714Z,90.90
2019-03-22T04:20:23.323Z,91.00
2019-03-22T04:22:52.623Z,91.00
2019-03-22T04:25:22.986Z,91.00
2019-03-22T04:27:52.286Z,90.90
2019-03-22T04:30:21.571Z,91.00
2019-03-22T04:32:50.894Z,91.00
2019-03-22T04:35:20.438Z,90.80
2019-03-22T04:37:49.750Z,90.30
2019-03-22T04:40:27.758Z,90.50
2019-03-22T04:42:57.568Z,90.80
2019-03-22T04:45:29.869Z,90.50
2019-03-22T04:48:05.299Z,90.80
2019-03-22T04:50:37.671Z,91.00
2019-03-22T04:53:10.066Z,90.90
2019-03-22T04:55:41.365Z,91.10
2019-03-22T04:58:12.226Z,91.10
2019-03-22T05:00:42.771Z,91.20
2019-03-22T05:03:13.207Z,91.30
2019-03-22T05:05:43.935Z,91.70
2019-03-22T05:08:15.855Z,91.60
2019-03-22T05:10:45.678Z,91.30
2019-03-22T05:13:17.225Z,91.90
2019-03-22T05:15:47.056Z,91.90
2019-03-22T05:18:16.647Z,91.60
2019-03-22T05:20:48.018Z,91.90
2019-03-22T05:23:19.805Z,92.00
2019-03-22T05:25:51.119Z,92.10
2019-03-22T05:28:20.639Z,92.20
2019-03-22T05:30:58.611Z,92.40
2019-03-22T05:33:27.904Z,92.30
2019-03-22T05:35:57.540Z,92.10
2019-03-22T05:38:26.823Z,92.00
2019-03-22T05:40:56.138Z,92.20
2019-03-22T05:43:26.502Z,92.20
2019-03-22T05:45:56.890Z,92.20
2019-03-22T05:48:26.170Z,92.20
2019-03-22T05:50:55.543Z,92.20
2019-03-22T05:53:24.840Z,92.00
2019-03-22T05:55:54.138Z,91.90
2019-03-22T05:58:23.698Z,91.70
2019-03-22T06:00:52.986Z,91.40
2019-03-22T06:03:22.603Z,91.50
2019-03-22T06:05:51.910Z,91.40
2019-03-22T06:08:21.195Z,91.40
2019-03-22T06:10:50.497Z,91.20
2019-03-22T06:13:19.806Z,91.00
2019-03-22T06:15:49.104Z,91.00
2019-03-22T06:18:18.713Z,90.90
2019-03-22T06:20:47.997Z,90.90
2019-03-22T06:23:17.305Z,90.50
2019-03-22T06:25:46.919Z,90.50
2019-03-22T06:28:16.533Z,90.60
2019-03-22T06:30:45.836Z,90.50
2019-03-22T06:33:15.128Z,90.20
2019-03-22T06:35:44.451Z,90.30
2019-03-22T06:38:14.039Z,90.20
2019-03-22T06:40:43.336Z,89.70
2019-03-22T06:43:12.639Z,89.40
2019-03-22T06:45:41.946Z,88.50
2019-03-22T06:48:11.233Z,88.30
2019-03-22T06:50:40.542Z,87.70
2019-03-22T06:53:10.169Z,87.50
2019-03-22T06:55:39.480Z,87.10
2019-03-22T06:58:08.786Z,86.90
2019-03-22T07:00:38.079Z,86.70
2019-03-22T07:03:07.369Z,86.80
2019-03-22T07:05:36.978Z,86.90
2019-03-22T07:08:06.258Z,86.30
2019-03-22T07:10:35.555Z,86.00
2019-03-22T07:13:04.860Z,85.70
2019-03-22T07:15:34.494Z,85.40
2019-03-22T07:18:04.072Z,85.10
2019-03-22T07:20:33.354Z,85.10
2019-03-22T07:23:02.665Z,84.50
2019-03-22T07:25:31.951Z,84.00
2019-03-22T07:28:01.305Z,83.80
2019-03-22T07:30:30.611Z,83.50
2019-03-22T07:33:00.208Z,83.30
2019-03-22T07:35:29.497Z,83.00
2019-03-22T07:37:59.103Z,82.60
2019-03-22T07:40:28.463Z,82.60
2019-03-22T07:42:57.755Z,82.90
2019-03-22T07:45:27.040Z,83.00
2019-03-22T07:47:56.619Z,82.50
2019-03-22T07:50:25.910Z,82.90
2019-03-22T07:52:55.225Z,82.30
2019-03-22T07:55:24.521Z,81.50
2019-03-22T07:57:53.814Z,81.30
2019-03-22T08:00:30.827Z,80.90
2019-03-22T08:02:54.127Z,80.10
2019-03-22T08:05:23.410Z,79.70
2019-03-22T08:07:52.973Z,79.20
2019-03-22T08:10:22.619Z,79.00
2019-03-22T08:12:51.914Z,79.40
2019-03-22T08:15:27.587Z,79.00
2019-03-22T08:17:58.187Z,78.60
2019-03-22T08:20:27.918Z,78.70
2019-03-22T08:22:57.246Z,77.80
2019-03-22T08:25:26.780Z,78.00
2019-03-22T08:27:56.147Z,77.60
2019-03-22T08:30:25.514Z,77.10
2019-03-22T08:32:55.238Z,78.00
2019-03-22T08:35:24.911Z,77.50
2019-03-22T08:37:54.305Z,75.50
2019-03-22T08:40:23.930Z,75.00
2019-03-22T08:42:53.252Z,74.40
2019-03-22T08:45:22.523Z,74.10
2019-03-22T08:47:52.130Z,73.90
2019-03-22T08:50:21.419Z,73.40
2019-03-22T08:52:51.035Z,73.10
2019-03-22T08:55:20.341Z,72.70
2019-03-22T08:57:49.676Z,72.20
2019-03-22T09:00:19.615Z,71.80
2019-03-22T09:02:49.820Z,72.00
2019-03-22T09:05:20.295Z,70.30
2019-03-22T09:07:49.680Z,70.40
2019-03-22T09:10:19.352Z,70.10
2019-03-22T09:12:49.052Z,69.80
2019-03-22T09:15:18.384Z,70.00
2019-03-22T09:17:48.046Z,69.80
2019-03-22T09:20:17.421Z,67.80
2019-03-22T09:22:46.784Z,67.70
2019-03-22T09:25:16.121Z,67.90
2019-03-22T09:27:45.481Z,67.50
2019-03-22T09:30:15.060Z,67.30
2019-03-22T09:32:44.696Z,67.00
2019-03-22T09:35:14.046Z,65.50
2019-03-22T09:37:43.592Z,65.50
2019-03-22T09:40:13.384Z,65.20
2019-03-22T09:42:43.013Z,64.20
2019-03-22T09:45:14.309Z,62.60
2019-03-22T09:47:44.065Z,64.10
2019-03-22T09:50:14.195Z,64.00
2019-03-22T09:52:43.720Z,64.20
2019-03-22T09:55:14.558Z,62.60
2019-03-22T09:57:44.428Z,62.50
2019-03-22T10:00:33.569Z,61.10
2019-03-22T10:03:04.192Z,61.50
2019-03-22T10:05:33.490Z,60.80
2019-03-22T10:08:03.009Z,60.50
2019-03-22T10:10:32.650Z,61.70
2019-03-22T10:13:02.367Z,60.20
2019-03-22T10:15:32.711Z,60.80
2019-03-22T10:18:02.010Z,60.70
2019-03-22T10:20:31.318Z,59.50
2019-03-22T10:23:00.595Z,60.30
2019-03-22T10:25:30.190Z,58.90
2019-03-22T10:27:59.838Z,60.00
2019-03-22T10:30:29.249Z,59.00
2019-03-22T10:32:58.949Z,59.70
2019-03-22T10:35:28.674Z,61.10
2019-03-22T10:38:00.827Z,61.80
2019-03-22T10:40:29.384Z,62.40
2019-03-22T10:42:58.984Z,61.70
2019-03-22T10:45:28.599Z,61.20
2019-03-22T10:47:57.902Z,61.30
2019-03-22T10:50:27.516Z,61.50
2019-03-22T10:52:57.250Z,60.90
2019-03-22T10:55:30.246Z,61.80
2019-03-22T10:57:57.555Z,63.20
2019-03-22T11:00:26.880Z,61.40
2019-03-22T11:02:56.597Z,62.30
2019-03-22T11:05:26.218Z,62.40
2019-03-22T11:07:55.513Z,61.70
2019-03-22T11:10:25.075Z,62.30
2019-03-22T11:12:54.697Z,62.10
2019-03-22T11:15:24.132Z,60.30
2019-03-22T11:17:53.482Z,62.10
2019-03-22T11:20:23.118Z,59.70
2019-03-22T11:22:52.407Z,61.00
2019-03-22T11:25:21.692Z,59.80
2019-03-22T11:27:50.974Z,59.90
2019-03-22T11:30:20.268Z,60.40
2019-03-22T11:32:49.567Z,61.10
2019-03-22T11:35:19.129Z,60.80
2019-03-22T11:37:48.446Z,60.10
2019-03-22T11:40:18.631Z,59.70
2019-03-22T11:42:47.919Z,59.70
2019-03-22T11:45:20.382Z,59.20
2019-03-22T11:47:49.901Z,59.20
2019-03-22T11:50:20.263Z,58.70
2019-03-22T11:52:49.558Z,59.40
2019-03-22T11:55:19.155Z,58.40
2019-03-22T11:57:48.438Z,57.90
2019-03-22T12:00:27.426Z,56.80
2019-03-22T12:02:56.746Z,57.10
2019-03-22T12:05:27.141Z,58.90
2019-03-22T12:07:56.430Z,57.90
2019-03-22T12:10:25.783Z,58.30
2019-03-22T12:12:55.085Z,58.30
2019-03-22T12:15:24.730Z,57.50
2019-03-22T12:17:54.012Z,58.10
2019-03-22T12:20:24.334Z,58.20
2019-03-22T12:22:54.280Z,56.50
2019-03-22T12:25:26.717Z,58.20
2019-03-22T12:27:56.171Z,57.70
2019-03-22T12:30:25.466Z,56.30
2019-03-22T12:32:55.072Z,56.70
2019-03-22T12:35:24.350Z,54.80
2019-03-22T12:37:53.643Z,54.60
2019-03-22T12:40:23.681Z,54.70
2019-03-22T12:42:53.035Z,53.00
2019-03-22T12:45:33.645Z,53.40
2019-03-22T12:48:03.248Z,55.80
2019-03-22T12:50:32.522Z,54.20
2019-03-22T12:53:01.815Z,55.70
2019-03-22T12:55:32.072Z,57.00
2019-03-22T12:58:01.379Z,56.40
2019-03-22T13:00:30.712Z,55.20
2019-03-22T13:03:00.279Z,55.30
2019-03-22T13:05:29.894Z,55.80
2019-03-22T13:07:59.176Z,56.80
2019-03-22T13:10:29.410Z,56.70
2019-03-22T13:12:58.696Z,57.60
2019-03-22T13:15:28.049Z,57.10
2019-03-22T13:17:57.334Z,56.40
2019-03-22T13:20:26.617Z,57.30
2019-03-22T13:22:55.908Z,56.70
2019-03-22T13:25:25.178Z,56.50
2019-03-22T13:27:54.723Z,54.60
2019-03-22T13:30:30.251Z,54.90
2019-03-22T13:32:59.719Z,54.00
2019-03-22T13:35:29.966Z,55.30
2019-03-22T13:37:59.260Z,54.30
2019-03-22T13:40:28.598Z,53.60
2019-03-22T13:42:58.240Z,53.80
2019-03-22T13:45:27.595Z,53.70
2019-03-22T13:47:57.335Z,53.50
2019-03-22T13:50:26.678Z,51.50
2019-03-22T13:52:56.939Z,51.50
2019-03-22T13:55:26.267Z,52.30
2019-03-22T13:57:55.642Z,51.90
2019-03-22T14:00:25.255Z,52.70
2019-03-22T14:03:02.971Z,52.50
2019-03-22T14:05:25.842Z,51.80
2019-03-22T14:07:55.416Z,52.50
2019-03-22T14:10:32.266Z,52.40
2019-03-22T14:13:03.227Z,52.70
2019-03-22T14:15:32.839Z,53.10
2019-03-22T14:18:02.122Z,52.90
2019-03-22T14:20:31.862Z,53.10
2019-03-22T14:23:01.169Z,54.50
2019-03-22T14:25:31.786Z,54.20
2019-03-22T14:28:01.075Z,52.90
2019-03-22T14:30:30.433Z,52.40
2019-03-22T14:32:59.718Z,52.70
2019-03-22T14:35:29.002Z,53.10
2019-03-22T14:37:58.284Z,53.70
2019-03-22T14:40:27.573Z,52.90
2019-03-22T14:42:56.871Z,52.30
2019-03-22T14:45:26.154Z,52.60
2019-03-22T14:47:55.701Z,52.30
2019-03-22T14:50:25.090Z,52.10
2019-03-22T14:52:54.363Z,51.80
2019-03-22T14:55:23.654Z,52.80
2019-03-22T14:57:52.983Z,52.40
2019-03-22T15:00:22.621Z,52.10
2019-03-22T15:02:51.896Z,52.80
2019-03-22T15:05:21.188Z,52.80
2019-03-22T15:07:50.467Z,52.00
2019-03-22T15:10:19.797Z,51.60
2019-03-22T15:12:49.368Z,51.40
2019-03-22T15:15:20.287Z,51.90
2019-03-22T15:17:51.211Z,52.40
2019-03-22T15:20:28.105Z,52.70
2019-03-22T15:23:02.701Z,52.00
2019-03-22T15:25:33.813Z,52.30
2019-03-22T15:28:21.057Z,51.60
2019-03-22T15:30:51.989Z,52.00
2019-03-22T15:33:34.358Z,51.60
2019-03-22T15:36:13.767Z,51.80
2019-03-22T15:39:01.098Z,51.70
2019-03-22T15:41:32.091Z,52.00
2019-03-22T15:44:01.424Z,53.00
2019-03-22T15:46:31.031Z,52.60
2019-03-22T15:49:00.303Z,51.90
2019-03-22T15:51:29.591Z,52.70
2019-03-22T15:53:58.881Z,52.30
2019-03-22T15:56:28.173Z,52.60
2019-03-22T15:58:57.447Z,53.20
2019-03-22T16:01:26.751Z,53.50
2019-03-22T16:03:56.022Z,52.10
2019-03-22T16:06:25.310Z,51.40
2019-03-22T16:08:54.586Z,51.80
2019-03-22T16:11:23.895Z,52.50
2019-03-22T16:13:53.567Z,53.20
2019-03-22T16:16:23.154Z,52.20
2019-03-22T16:18:52.445Z,52.50
2019-03-22T16:21:21.774Z,52.60
2019-03-22T16:23:51.373Z,52.60
2019-03-22T16:26:20.754Z,52.40
2019-03-22T16:28:50.027Z,52.60
2019-03-22T16:31:19.401Z,52.60
2019-03-22T16:33:54.258Z,53.50
2019-03-22T16:36:19.907Z,53.00
2019-03-22T16:38:49.227Z,53.00
2019-03-22T16:41:18.837Z,53.50
2019-03-22T16:43:48.138Z,54.20
2019-03-22T16:46:17.494Z,54.10
2019-03-22T16:48:46.779Z,54.30
2019-03-22T16:51:16.104Z,55.10
2019-03-22T16:53:45.751Z,55.00
2019-03-22T16:56:15.047Z,54.60
2019-03-22T16:58:44.660Z,54.70
2019-03-22T17:01:13.982Z,54.50
2019-03-22T17:03:43.345Z,54.60
2019-03-22T17:06:12.612Z,55.20
2019-03-22T17:08:41.900Z,54.60
2019-03-22T17:11:11.183Z,54.60
2019-03-22T17:13:40.473Z,54.40
2019-03-22T17:16:09.746Z,53.90
2019-03-22T17:18:39.038Z,55.10
2019-03-22T17:21:08.325Z,55.30
2019-03-22T17:23:37.626Z,55.50
2019-03-22T17:26:06.907Z,55.80
2019-03-22T17:28:36.198Z,55.60
2019-03-22T17:31:06.468Z,55.60
2019-03-22T17:33:35.764Z,56.10
2019-03-22T17:36:05.050Z,56.40
2019-03-22T17:38:35.445Z,57.20
2019-03-22T17:41:04.887Z,57.10
2019-03-22T17:43:34.180Z,56.70
2019-03-22T17:46:03.459Z,57.50
2019-03-22T17:48:33.019Z,58.30
2019-03-22T17:51:02.291Z,61.20
2019-03-22T17:53:31.598Z,59.90
2019-03-22T17:56:00.878Z,61.00
2019-03-22T17:58:30.570Z,61.90
2019-03-22T18:00:59.863Z,60.50
2019-03-22T18:03:29.146Z,62.00
2019-03-22T18:05:58.441Z,62.80
2019-03-22T18:08:27.723Z,63.70
2019-03-22T18:10:58.078Z,62.80
2019-03-22T18:13:27.380Z,63.60
2019-03-22T18:15:56.651Z,63.90
2019-03-22T18:18:25.936Z,64.30
2019-03-22T18:20:55.218Z,63.70
2019-03-22T18:23:24.515Z,63.50
2019-03-22T18:25:54.785Z,63.10
2019-03-22T18:28:24.058Z,63.00
2019-03-22T18:30:53.357Z,63.20
2019-03-22T18:33:22.635Z,63.20
2019-03-22T18:35:51.927Z,62.70
2019-03-22T18:38:21.211Z,63.70
2019-03-22T18:40:50.503Z,64.30
2019-03-22T18:43:19.787Z,63.20
2019-03-22T18:45:49.082Z,64.10
2019-03-22T18:48:18.383Z,63.40
2019-03-22T18:50:56.350Z,63.20
2019-03-22T18:53:18.970Z,64.50
2019-03-22T18:55:48.255Z,64.00
2019-03-22T18:58:17.858Z,64.00
2019-03-22T19:00:49.545Z,64.90
2019-03-22T19:03:18.226Z,64.60
2019-03-22T19:05:47.763Z,64.00
2019-03-22T19:08:17.045Z,64.10
2019-03-22T19:10:47.493Z,63.70
2019-03-22T19:13:16.778Z,63.00
2019-03-22T19:15:46.158Z,64.50
2019-03-22T19:18:15.797Z,65.90
2019-03-22T19:20:45.134Z,64.20
2019-03-22T19:23:14.418Z,63.60
2019-03-22T19:25:43.799Z,66.60
2019-03-22T19:28:13.358Z,67.20
2019-03-22T19:30:44.096Z,67.50
2019-03-22T19:33:13.371Z,67.30
2019-03-22T19:35:42.734Z,66.80
2019-03-22T19:38:12.015Z,66.10
2019-03-22T19:40:41.302Z,68.20
2019-03-22T19:43:10.592Z,68.40
2019-03-22T19:45:39.886Z,69.00
2019-03-22T19:48:10.240Z,69.20
2019-03-22T19:50:39.838Z,68.70
2019-03-22T19:53:09.432Z,69.10
2019-03-22T19:55:39.039Z,69.30
2019-03-22T19:58:08.327Z,69.70
2019-03-22T20:00:37.612Z,70.00
2019-03-22T20:03:06.895Z,70.70
2019-03-22T20:05:36.447Z,70.40
2019-03-22T20:08:05.731Z,70.20
2019-03-22T20:10:36.180Z,71.10
2019-03-22T20:13:05.656Z,71.00
2019-03-22T20:15:34.994Z,71.60
2019-03-22T20:18:04.511Z,71.70
2019-03-22T20:20:36.100Z,69.20
2019-03-22T20:23:04.952Z,70.70
2019-03-22T20:25:34.403Z,71.90
2019-03-22T20:28:03.733Z,72.10
2019-03-22T20:30:33.121Z,72.40
2019-03-22T20:33:02.752Z,73.10
2019-03-22T20:35:32.048Z,73.60
2019-03-22T20:38:01.407Z,73.80
2019-03-22T20:40:31.078Z,73.70
2019-03-22T20:43:00.354Z,73.70
2019-03-22T20:45:29.687Z,74.10
2019-03-22T20:47:59.339Z,74.70
2019-03-22T20:50:35.795Z,75.00
2019-03-22T20:52:59.880Z,74.30
2019-03-22T20:55:29.260Z,74.80
2019-03-22T20:57:59.970Z,74.80
2019-03-22T21:00:29.644Z,74.90
2019-03-22T21:02:58.974Z,75.30
2019-03-22T21:05:28.307Z,75.90
2019-03-22T21:07:57.836Z,75.80
2019-03-22T21:10:27.171Z,75.70
2019-03-22T21:12:56.496Z,76.00
2019-03-22T21:15:25.791Z,75.60
2019-03-22T21:17:55.083Z,73.60
2019-03-22T21:20:24.383Z,73.70
2019-03-22T21:22:54.002Z,74.00
2019-03-22T21:25:23.297Z,73.80
2019-03-22T21:27:52.899Z,73.60
2019-03-22T21:30:22.584Z,74.20
2019-03-22T21:32:51.959Z,74.90
2019-03-22T21:35:22.911Z,73.50
2019-03-22T21:37:52.215Z,74.60
2019-03-22T21:40:21.498Z,73.00
2019-03-22T21:42:50.785Z,73.00
2019-03-22T21:45:20.135Z,73.70
2019-03-22T21:47:49.495Z,73.00
2019-03-22T21:50:18.790Z,73.30
2019-03-22T21:52:48.078Z,72.10
2019-03-22T21:55:17.358Z,71.60
2019-03-22T21:57:46.682Z,71.90
2019-03-22T22:00:16.252Z,72.30
2019-03-22T22:02:45.554Z,72.50
2019-03-22T22:05:14.842Z,72.10
2019-03-22T22:07:44.286Z,72.60
2019-03-22T22:10:13.674Z,73.50
2019-03-22T22:12:42.954Z,73.80
2019-03-22T22:15:12.317Z,74.60
2019-03-22T22:17:41.663Z,75.10
2019-03-22T22:20:12.031Z,74.90
2019-03-22T22:22:41.314Z,75.40
2019-03-22T22:25:10.860Z,75.20
2019-03-22T22:27:40.141Z,75.40
2019-03-22T22:30:10.729Z,73.60
2019-03-22T22:32:40.085Z,73.80
2019-03-22T22:35:09.546Z,74.40
2019-03-22T22:37:38.831Z,75.10
2019-03-22T22:40:09.874Z,75.20
2019-03-22T22:42:39.177Z,76.00
2019-03-22T22:45:10.116Z,76.00
2019-03-22T22:47:40.385Z,76.50
2019-03-22T22:50:12.218Z,76.40
2019-03-22T22:52:41.511Z,76.60
2019-03-22T22:55:11.502Z,77.00
2019-03-22T22:57:41.053Z,77.40
2019-03-22T23:00:13.846Z,76.80
2019-03-22T23:02:44.892Z,77.30
2019-03-22T23:05:14.685Z,77.50
2019-03-22T23:07:44.306Z,77.40
2019-03-22T23:10:14.119Z,77.60
2019-03-22T23:12:44.223Z,77.70
2019-03-22T23:15:14.095Z,78.10
2019-03-22T23:17:43.392Z,78.30
2019-03-22T23:20:12.683Z,78.40
2019-03-22T23:22:42.263Z,78.80
2019-03-22T23:25:11.645Z,78.70
2019-03-22T23:27:42.006Z,79.10
2019-03-22T23:30:12.640Z,79.30
2019-03-22T23:32:42.355Z,79.20
2019-03-22T23:35:11.818Z,79.00
2019-03-22T23:37:41.103Z,79.30
2019-03-22T23:40:11.140Z,79.50
2019-03-22T23:42:40.404Z,79.30
2019-03-22T23:45:10.730Z,79.90
2019-03-22T23:47:40.011Z,79.90
2019-03-22T23:50:09.849Z,80.20
2019-03-22T23:52:39.157Z,80.00
2019-03-22T23:55:09.099Z,80.10
2019-03-22T23:57:38.730Z,80.40
